sensor_id;sensor_type;location;lat;lon;timestamp;P1;durP1;ratioP1;P2;durP2;ratioP2
20896;SDS011;10608;42.600;23.398;2023-03-14T00:00:16;9.60;;;9.23;;
20896;SDS011;10608;42.600;23.398;2023-03-14T00:02:41;10.40;;;10.00;;
20896;SDS011;10608;42.600;23.398;2023-03-14T00:05:07;11.70;;;11.30;;
20896;SDS011;10608;42.600;23.398;2023-03-14T00:07:33;14.50;;;13.90;;
20896;SDS011;10608;42.600;23.398;2023-03-14T00:10:00;12.43;;;11.93;;
20896;SDS011;10608;42.600;23.398;2023-03-14T00:12:26;10.20;;;9.80;;
20896;SDS011;10608;42.600;23.398;2023-03-14T00:14:51;11.83;;;11.20;;
20896;SDS011;10608;42.600;23.398;2023-03-14T00:17:16;12.53;;;12.03;;
20896;SDS011;10608;42.600;23.398;2023-03-14T00:19:41;12.67;;;12.17;;
20896;SDS011;10608;42.600;23.398;2023-03-14T00:22:06;10.43;;;10.03;;
20896;SDS011;10608;42.600;23.398;2023-03-14T00:24:32;9.60;;;9.20;;
20896;SDS011;10608;42.600;23.398;2023-03-14T00:26:57;30.07;;;28.80;;
20896;SDS011;10608;42.600;23.398;2023-03-14T00:29:22;13.63;;;13.13;;
20896;SDS011;10608;42.600;23.398;2023-03-14T00:31:47;13.03;;;12.53;;
20896;SDS011;10608;42.600;23.398;2023-03-14T00:34:13;11.20;;;10.80;;
20896;SDS011;10608;42.600;23.398;2023-03-14T00:36:38;13.07;;;12.57;;
20896;SDS011;10608;42.600;23.398;2023-03-14T00:39:03;11.37;;;10.97;;
20896;SDS011;10608;42.600;23.398;2023-03-14T00:41:28;11.33;;;10.93;;
20896;SDS011;10608;42.600;23.398;2023-03-14T00:43:54;11.40;;;11.00;;
20896;SDS011;10608;42.600;23.398;2023-03-14T00:46:19;11.10;;;10.70;;
20896;SDS011;10608;42.600;23.398;2023-03-14T00:48:44;10.77;;;10.37;;
20896;SDS011;10608;42.600;23.398;2023-03-14T00:51:10;11.37;;;10.97;;
20896;SDS011;10608;42.600;23.398;2023-03-14T00:53:38;11.77;;;11.27;;
20896;SDS011;10608;42.600;23.398;2023-03-14T00:56:05;12.90;;;12.40;;
20896;SDS011;10608;42.600;23.398;2023-03-14T00:58:30;12.93;;;12.43;;
20896;SDS011;10608;42.600;23.398;2023-03-14T01:00:56;13.43;;;12.83;;
20896;SDS011;10608;42.600;23.398;2023-03-14T01:03:21;12.50;;;11.93;;
20896;SDS011;10608;42.600;23.398;2023-03-14T01:05:46;12.30;;;11.80;;
20896;SDS011;10608;42.600;23.398;2023-03-14T01:08:12;11.30;;;10.90;;
20896;SDS011;10608;42.600;23.398;2023-03-14T01:10:38;12.13;;;11.63;;
20896;SDS011;10608;42.600;23.398;2023-03-14T01:13:04;11.77;;;11.27;;
20896;SDS011;10608;42.600;23.398;2023-03-14T01:15:29;11.17;;;10.77;;
20896;SDS011;10608;42.600;23.398;2023-03-14T01:17:54;12.27;;;11.77;;
20896;SDS011;10608;42.600;23.398;2023-03-14T01:20:19;12.73;;;12.23;;
20896;SDS011;10608;42.600;23.398;2023-03-14T01:22:45;12.23;;;11.73;;
20896;SDS011;10608;42.600;23.398;2023-03-14T01:25:12;12.40;;;11.90;;
20896;SDS011;10608;42.600;23.398;2023-03-14T01:27:37;11.90;;;11.47;;
20896;SDS011;10608;42.600;23.398;2023-03-14T01:30:03;10.80;;;10.40;;
20896;SDS011;10608;42.600;23.398;2023-03-14T01:32:29;11.17;;;10.77;;
20896;SDS011;10608;42.600;23.398;2023-03-14T01:34:54;11.40;;;11.00;;
20896;SDS011;10608;42.600;23.398;2023-03-14T01:37:19;11.60;;;11.13;;
20896;SDS011;10608;42.600;23.398;2023-03-14T01:39:46;11.20;;;10.80;;
20896;SDS011;10608;42.600;23.398;2023-03-14T01:42:11;10.97;;;10.57;;
20896;SDS011;10608;42.600;23.398;2023-03-14T01:44:46;11.50;;;10.90;;
20896;SDS011;10608;42.600;23.398;2023-03-14T01:47:12;10.43;;;10.03;;
20896;SDS011;10608;42.600;23.398;2023-03-14T01:49:37;11.83;;;11.37;;
20896;SDS011;10608;42.600;23.398;2023-03-14T01:52:10;11.70;;;11.30;;
20896;SDS011;10608;42.600;23.398;2023-03-14T01:54:47;11.67;;;11.17;;
20896;SDS011;10608;42.600;23.398;2023-03-14T01:57:19;10.47;;;10.07;;
20896;SDS011;10608;42.600;23.398;2023-03-14T01:59:46;10.30;;;9.90;;
20896;SDS011;10608;42.600;23.398;2023-03-14T02:02:13;10.23;;;9.83;;
20896;SDS011;10608;42.600;23.398;2023-03-14T02:04:40;9.70;;;9.30;;
20896;SDS011;10608;42.600;23.398;2023-03-14T02:07:13;10.10;;;9.70;;
20896;SDS011;10608;42.600;23.398;2023-03-14T02:09:40;10.20;;;9.80;;
20896;SDS011;10608;42.600;23.398;2023-03-14T02:12:07;9.87;;;9.37;;
20896;SDS011;10608;42.600;23.398;2023-03-14T02:14:33;9.00;;;8.70;;
20896;SDS011;10608;42.600;23.398;2023-03-14T02:17:00;9.43;;;9.07;;
20896;SDS011;10608;42.600;23.398;2023-03-14T02:22:11;11.00;;;10.60;;
20896;SDS011;10608;42.600;23.398;2023-03-14T02:27:20;10.60;;;10.20;;
20896;SDS011;10608;42.600;23.398;2023-03-14T02:29:52;9.60;;;9.20;;
20896;SDS011;10608;42.600;23.398;2023-03-14T02:32:20;9.67;;;9.27;;
20896;SDS011;10608;42.600;23.398;2023-03-14T02:34:47;10.13;;;9.73;;
20896;SDS011;10608;42.600;23.398;2023-03-14T02:37:13;11.33;;;10.83;;
20896;SDS011;10608;42.600;23.398;2023-03-14T02:39:41;11.47;;;11.07;;
20896;SDS011;10608;42.600;23.398;2023-03-14T02:42:09;12.27;;;11.77;;
20896;SDS011;10608;42.600;23.398;2023-03-14T02:44:34;11.13;;;10.73;;
20896;SDS011;10608;42.600;23.398;2023-03-14T02:47:00;10.23;;;9.83;;
20896;SDS011;10608;42.600;23.398;2023-03-14T02:49:26;12.50;;;11.87;;
20896;SDS011;10608;42.600;23.398;2023-03-14T02:51:52;12.40;;;11.80;;
20896;SDS011;10608;42.600;23.398;2023-03-14T02:54:17;11.43;;;11.03;;
20896;SDS011;10608;42.600;23.398;2023-03-14T02:56:44;11.03;;;10.63;;
20896;SDS011;10608;42.600;23.398;2023-03-14T02:59:09;10.63;;;10.23;;
20896;SDS011;10608;42.600;23.398;2023-03-14T03:01:34;9.70;;;9.30;;
20896;SDS011;10608;42.600;23.398;2023-03-14T03:03:59;10.00;;;9.60;;
20896;SDS011;10608;42.600;23.398;2023-03-14T03:06:25;9.33;;;9.03;;
20896;SDS011;10608;42.600;23.398;2023-03-14T03:08:50;9.77;;;9.37;;
20896;SDS011;10608;42.600;23.398;2023-03-14T03:11:15;10.20;;;9.80;;
20896;SDS011;10608;42.600;23.398;2023-03-14T03:13:41;10.43;;;10.03;;
20896;SDS011;10608;42.600;23.398;2023-03-14T03:16:06;10.20;;;9.80;;
20896;SDS011;10608;42.600;23.398;2023-03-14T03:18:31;11.27;;;10.67;;
20896;SDS011;10608;42.600;23.398;2023-03-14T03:20:59;9.93;;;9.53;;
20896;SDS011;10608;42.600;23.398;2023-03-14T03:23:24;10.40;;;10.00;;
20896;SDS011;10608;42.600;23.398;2023-03-14T03:25:50;11.17;;;10.77;;
20896;SDS011;10608;42.600;23.398;2023-03-14T03:28:16;13.20;;;12.70;;
20896;SDS011;10608;42.600;23.398;2023-03-14T03:30:41;14.10;;;13.60;;
20896;SDS011;10608;42.600;23.398;2023-03-14T03:33:07;13.70;;;13.20;;
20896;SDS011;10608;42.600;23.398;2023-03-14T03:35:32;13.20;;;12.70;;
20896;SDS011;10608;42.600;23.398;2023-03-14T03:37:57;12.77;;;12.27;;
20896;SDS011;10608;42.600;23.398;2023-03-14T03:40:23;13.47;;;12.97;;
20896;SDS011;10608;42.600;23.398;2023-03-14T03:42:48;13.57;;;13.07;;
20896;SDS011;10608;42.600;23.398;2023-03-14T03:45:13;13.93;;;13.43;;
20896;SDS011;10608;42.600;23.398;2023-03-14T03:47:38;13.80;;;13.30;;
20896;SDS011;10608;42.600;23.398;2023-03-14T03:50:04;12.70;;;12.10;;
20896;SDS011;10608;42.600;23.398;2023-03-14T03:52:29;13.57;;;13.07;;
20896;SDS011;10608;42.600;23.398;2023-03-14T03:54:54;13.33;;;12.83;;
20896;SDS011;10608;42.600;23.398;2023-03-14T03:57:20;13.33;;;12.83;;
20896;SDS011;10608;42.600;23.398;2023-03-14T03:59:45;13.13;;;12.63;;
20896;SDS011;10608;42.600;23.398;2023-03-14T04:02:10;11.27;;;10.87;;
20896;SDS011;10608;42.600;23.398;2023-03-14T04:04:36;9.63;;;9.23;;
20896;SDS011;10608;42.600;23.398;2023-03-14T04:07:02;11.97;;;11.47;;
20896;SDS011;10608;42.600;23.398;2023-03-14T04:09:27;12.03;;;11.53;;
20896;SDS011;10608;42.600;23.398;2023-03-14T04:11:53;12.33;;;11.83;;
20896;SDS011;10608;42.600;23.398;2023-03-14T04:14:18;11.50;;;11.10;;
20896;SDS011;10608;42.600;23.398;2023-03-14T04:16:43;11.87;;;11.43;;
20896;SDS011;10608;42.600;23.398;2023-03-14T04:19:08;11.67;;;11.27;;
20896;SDS011;10608;42.600;23.398;2023-03-14T04:21:34;11.83;;;11.33;;
20896;SDS011;10608;42.600;23.398;2023-03-14T04:23:59;12.50;;;11.50;;
20896;SDS011;10608;42.600;23.398;2023-03-14T04:26:24;10.93;;;10.50;;
20896;SDS011;10608;42.600;23.398;2023-03-14T04:28:49;11.20;;;10.80;;
20896;SDS011;10608;42.600;23.398;2023-03-14T04:31:16;11.37;;;10.97;;
20896;SDS011;10608;42.600;23.398;2023-03-14T04:33:41;14.43;;;13.87;;
20896;SDS011;10608;42.600;23.398;2023-03-14T04:36:07;11.63;;;11.23;;
20896;SDS011;10608;42.600;23.398;2023-03-14T04:38:33;12.23;;;11.73;;
20896;SDS011;10608;42.600;23.398;2023-03-14T04:40:59;11.77;;;11.37;;
20896;SDS011;10608;42.600;23.398;2023-03-14T04:43:25;11.73;;;11.33;;
20896;SDS011;10608;42.600;23.398;2023-03-14T04:45:51;11.60;;;11.20;;
20896;SDS011;10608;42.600;23.398;2023-03-14T04:48:16;10.10;;;9.70;;
20896;SDS011;10608;42.600;23.398;2023-03-14T04:50:41;11.57;;;11.17;;
20896;SDS011;10608;42.600;23.398;2023-03-14T04:53:06;11.57;;;11.17;;
20896;SDS011;10608;42.600;23.398;2023-03-14T04:55:32;11.00;;;10.60;;
20896;SDS011;10608;42.600;23.398;2023-03-14T04:57:58;10.60;;;10.20;;
20896;SDS011;10608;42.600;23.398;2023-03-14T05:00:23;11.23;;;10.83;;
20896;SDS011;10608;42.600;23.398;2023-03-14T05:02:48;10.63;;;10.23;;
20896;SDS011;10608;42.600;23.398;2023-03-14T05:05:13;9.90;;;9.50;;
20896;SDS011;10608;42.600;23.398;2023-03-14T05:07:39;10.77;;;10.37;;
20896;SDS011;10608;42.600;23.398;2023-03-14T05:10:04;11.10;;;10.70;;
20896;SDS011;10608;42.600;23.398;2023-03-14T05:12:29;11.40;;;11.00;;
20896;SDS011;10608;42.600;23.398;2023-03-14T05:14:55;10.83;;;10.30;;
20896;SDS011;10608;42.600;23.398;2023-03-14T05:17:20;11.97;;;11.47;;
20896;SDS011;10608;42.600;23.398;2023-03-14T05:19:45;11.73;;;11.33;;
20896;SDS011;10608;42.600;23.398;2023-03-14T05:22:11;12.60;;;12.10;;
20896;SDS011;10608;42.600;23.398;2023-03-14T05:24:36;20.00;;;19.20;;
20896;SDS011;10608;42.600;23.398;2023-03-14T05:27:02;12.17;;;11.67;;
20896;SDS011;10608;42.600;23.398;2023-03-14T05:29:27;10.33;;;9.93;;
20896;SDS011;10608;42.600;23.398;2023-03-14T05:31:52;9.80;;;9.37;;
20896;SDS011;10608;42.600;23.398;2023-03-14T05:34:18;15.17;;;14.50;;
20896;SDS011;10608;42.600;23.398;2023-03-14T05:36:43;13.37;;;12.70;;
20896;SDS011;10608;42.600;23.398;2023-03-14T05:39:08;11.10;;;10.60;;
20896;SDS011;10608;42.600;23.398;2023-03-14T05:41:33;10.30;;;9.90;;
20896;SDS011;10608;42.600;23.398;2023-03-14T05:43:59;25.53;;;24.30;;
20896;SDS011;10608;42.600;23.398;2023-03-14T05:46:24;32.13;;;30.83;;
20896;SDS011;10608;42.600;23.398;2023-03-14T05:48:49;13.57;;;13.07;;
20896;SDS011;10608;42.600;23.398;2023-03-14T05:51:14;12.43;;;11.93;;
20896;SDS011;10608;42.600;23.398;2023-03-14T05:53:39;10.40;;;10.00;;
20896;SDS011;10608;42.600;23.398;2023-03-14T05:56:05;11.83;;;11.33;;
20896;SDS011;10608;42.600;23.398;2023-03-14T05:58:30;9.87;;;9.47;;
20896;SDS011;10608;42.600;23.398;2023-03-14T06:00:55;10.10;;;9.60;;
20896;SDS011;10608;42.600;23.398;2023-03-14T06:03:21;10.93;;;10.43;;
20896;SDS011;10608;42.600;23.398;2023-03-14T06:05:46;10.47;;;10.07;;
20896;SDS011;10608;42.600;23.398;2023-03-14T06:08:14;9.07;;;8.73;;
20896;SDS011;10608;42.600;23.398;2023-03-14T06:10:39;10.67;;;10.27;;
20896;SDS011;10608;42.600;23.398;2023-03-14T06:13:04;10.43;;;9.97;;
20896;SDS011;10608;42.600;23.398;2023-03-14T06:15:29;8.67;;;8.37;;
20896;SDS011;10608;42.600;23.398;2023-03-14T06:17:55;8.67;;;8.37;;
20896;SDS011;10608;42.600;23.398;2023-03-14T06:20:21;10.03;;;9.53;;
20896;SDS011;10608;42.600;23.398;2023-03-14T06:22:46;14.13;;;13.53;;
20896;SDS011;10608;42.600;23.398;2023-03-14T06:25:11;10.87;;;10.37;;
20896;SDS011;10608;42.600;23.398;2023-03-14T06:27:37;9.17;;;8.83;;
20896;SDS011;10608;42.600;23.398;2023-03-14T06:30:02;10.13;;;9.73;;
20896;SDS011;10608;42.600;23.398;2023-03-14T06:32:27;11.53;;;11.03;;
20896;SDS011;10608;42.600;23.398;2023-03-14T06:34:53;9.57;;;9.10;;
20896;SDS011;10608;42.600;23.398;2023-03-14T06:37:18;11.50;;;11.00;;
20896;SDS011;10608;42.600;23.398;2023-03-14T06:39:43;10.77;;;10.37;;
20896;SDS011;10608;42.600;23.398;2023-03-14T06:42:09;8.63;;;8.30;;
20896;SDS011;10608;42.600;23.398;2023-03-14T06:44:34;9.50;;;9.10;;
20896;SDS011;10608;42.600;23.398;2023-03-14T06:46:59;10.27;;;9.87;;
20896;SDS011;10608;42.600;23.398;2023-03-14T06:49:25;22.13;;;21.23;;
20896;SDS011;10608;42.600;23.398;2023-03-14T06:51:50;22.53;;;21.60;;
20896;SDS011;10608;42.600;23.398;2023-03-14T06:54:15;15.50;;;14.87;;
20896;SDS011;10608;42.600;23.398;2023-03-14T06:56:41;18.77;;;18.03;;
20896;SDS011;10608;42.600;23.398;2023-03-14T06:59:06;11.83;;;11.33;;
20896;SDS011;10608;42.600;23.398;2023-03-14T07:01:31;8.90;;;8.50;;
20896;SDS011;10608;42.600;23.398;2023-03-14T07:04:00;9.43;;;9.03;;
20896;SDS011;10608;42.600;23.398;2023-03-14T07:06:25;7.60;;;7.30;;
20896;SDS011;10608;42.600;23.398;2023-03-14T07:08:50;9.40;;;9.00;;
20896;SDS011;10608;42.600;23.398;2023-03-14T07:11:16;9.33;;;8.97;;
20896;SDS011;10608;42.600;23.398;2023-03-14T07:13:41;10.17;;;9.77;;
20896;SDS011;10608;42.600;23.398;2023-03-14T07:16:06;9.83;;;9.43;;
20896;SDS011;10608;42.600;23.398;2023-03-14T07:18:32;12.67;;;12.17;;
20896;SDS011;10608;42.600;23.398;2023-03-14T07:20:57;11.10;;;10.47;;
20896;SDS011;10608;42.600;23.398;2023-03-14T07:23:22;16.37;;;15.63;;
20896;SDS011;10608;42.600;23.398;2023-03-14T07:25:47;14.07;;;13.47;;
20896;SDS011;10608;42.600;23.398;2023-03-14T07:28:13;10.93;;;10.43;;
20896;SDS011;10608;42.600;23.398;2023-03-14T07:30:38;10.60;;;10.20;;
20896;SDS011;10608;42.600;23.398;2023-03-14T07:33:03;11.17;;;10.57;;
20896;SDS011;10608;42.600;23.398;2023-03-14T07:35:28;19.23;;;18.40;;
20896;SDS011;10608;42.600;23.398;2023-03-14T07:37:54;17.97;;;17.23;;
20896;SDS011;10608;42.600;23.398;2023-03-14T07:40:19;14.97;;;14.37;;
20896;SDS011;10608;42.600;23.398;2023-03-14T07:42:44;10.27;;;9.87;;
20896;SDS011;10608;42.600;23.398;2023-03-14T07:45:10;14.43;;;13.67;;
20896;SDS011;10608;42.600;23.398;2023-03-14T07:47:35;14.10;;;13.53;;
20896;SDS011;10608;42.600;23.398;2023-03-14T07:50:00;12.80;;;12.27;;
20896;SDS011;10608;42.600;23.398;2023-03-14T07:52:26;20.47;;;19.50;;
20896;SDS011;10608;42.600;23.398;2023-03-14T07:54:51;15.40;;;14.77;;
20896;SDS011;10608;42.600;23.398;2023-03-14T07:57:16;16.47;;;15.70;;
20896;SDS011;10608;42.600;23.398;2023-03-14T07:59:41;20.50;;;19.27;;
20896;SDS011;10608;42.600;23.398;2023-03-14T08:02:09;12.53;;;12.03;;
20896;SDS011;10608;42.600;23.398;2023-03-14T08:04:36;18.77;;;17.97;;
20896;SDS011;10608;42.600;23.398;2023-03-14T08:07:02;17.27;;;16.53;;
20896;SDS011;10608;42.600;23.398;2023-03-14T08:09:27;9.70;;;9.30;;
20896;SDS011;10608;42.600;23.398;2023-03-14T08:11:52;14.73;;;14.13;;
20896;SDS011;10608;42.600;23.398;2023-03-14T08:14:17;10.33;;;9.93;;
20896;SDS011;10608;42.600;23.398;2023-03-14T08:16:43;16.90;;;16.20;;
20896;SDS011;10608;42.600;23.398;2023-03-14T08:19:08;14.60;;;14.00;;
20896;SDS011;10608;42.600;23.398;2023-03-14T08:21:33;36.57;;;35.03;;
20896;SDS011;10608;42.600;23.398;2023-03-14T08:23:59;13.30;;;12.73;;
20896;SDS011;10608;42.600;23.398;2023-03-14T08:26:24;13.17;;;12.60;;
20896;SDS011;10608;42.600;23.398;2023-03-14T08:28:49;32.43;;;30.90;;
20896;SDS011;10608;42.600;23.398;2023-03-14T08:31:14;54.53;;;52.13;;
20896;SDS011;10608;42.600;23.398;2023-03-14T08:33:39;43.60;;;41.73;;
20896;SDS011;10608;42.600;23.398;2023-03-14T08:36:05;47.83;;;45.83;;
20896;SDS011;10608;42.600;23.398;2023-03-14T08:38:30;41.97;;;40.23;;
20896;SDS011;10608;42.600;23.398;2023-03-14T08:40:56;30.23;;;28.97;;
20896;SDS011;10608;42.600;23.398;2023-03-14T08:43:42;14.90;;;14.23;;
20896;SDS011;10608;42.600;23.398;2023-03-14T08:46:07;9.40;;;8.60;;
20896;SDS011;10608;42.600;23.398;2023-03-14T08:48:32;23.20;;;22.20;;
20896;SDS011;10608;42.600;23.398;2023-03-14T08:51:04;57.07;;;54.70;;
20896;SDS011;10608;42.600;23.398;2023-03-14T08:53:30;32.87;;;31.13;;
20896;SDS011;10608;42.600;23.398;2023-03-14T08:55:55;22.67;;;21.77;;
20896;SDS011;10608;42.600;23.398;2023-03-14T08:58:20;16.17;;;15.47;;
20896;SDS011;10608;42.600;23.398;2023-03-14T09:00:48;13.43;;;12.93;;
20896;SDS011;10608;42.600;23.398;2023-03-14T09:03:13;14.10;;;13.50;;
20896;SDS011;10608;42.600;23.398;2023-03-14T09:05:39;15.67;;;14.97;;
20896;SDS011;10608;42.600;23.398;2023-03-14T09:08:04;27.27;;;26.10;;
20896;SDS011;10608;42.600;23.398;2023-03-14T09:10:30;21.50;;;20.60;;
20896;SDS011;10608;42.600;23.398;2023-03-14T09:12:55;18.77;;;17.90;;
20896;SDS011;10608;42.600;23.398;2023-03-14T09:15:22;19.53;;;18.57;;
20896;SDS011;10608;42.600;23.398;2023-03-14T09:17:47;15.33;;;14.70;;
20896;SDS011;10608;42.600;23.398;2023-03-14T09:20:12;15.83;;;15.17;;
20896;SDS011;10608;42.600;23.398;2023-03-14T09:22:38;18.17;;;17.37;;
20896;SDS011;10608;42.600;23.398;2023-03-14T09:25:04;13.53;;;12.73;;
20896;SDS011;10608;42.600;23.398;2023-03-14T09:27:29;15.03;;;14.27;;
20896;SDS011;10608;42.600;23.398;2023-03-14T09:29:54;12.40;;;11.90;;
20896;SDS011;10608;42.600;23.398;2023-03-14T09:32:20;13.50;;;12.90;;
20896;SDS011;10608;42.600;23.398;2023-03-14T09:34:45;27.80;;;26.60;;
20896;SDS011;10608;42.600;23.398;2023-03-14T09:37:10;18.13;;;17.33;;
20896;SDS011;10608;42.600;23.398;2023-03-14T09:39:36;18.17;;;17.27;;
20896;SDS011;10608;42.600;23.398;2023-03-14T09:42:02;14.17;;;13.60;;
20896;SDS011;10608;42.600;23.398;2023-03-14T09:44:32;11.83;;;11.33;;
20896;SDS011;10608;42.600;23.398;2023-03-14T09:47:00;9.10;;;8.70;;
20896;SDS011;10608;42.600;23.398;2023-03-14T09:49:30;13.93;;;13.23;;
20896;SDS011;10608;42.600;23.398;2023-03-14T09:51:56;14.17;;;13.57;;
20896;SDS011;10608;42.600;23.398;2023-03-14T09:54:30;22.37;;;21.40;;
20896;SDS011;10608;42.600;23.398;2023-03-14T09:56:56;14.37;;;13.77;;
20896;SDS011;10608;42.600;23.398;2023-03-14T09:59:21;17.43;;;16.63;;
20896;SDS011;10608;42.600;23.398;2023-03-14T10:01:46;12.20;;;11.70;;
20896;SDS011;10608;42.600;23.398;2023-03-14T10:04:15;11.87;;;11.37;;
20896;SDS011;10608;42.600;23.398;2023-03-14T10:06:44;10.93;;;10.43;;
20896;SDS011;10608;42.600;23.398;2023-03-14T10:09:17;12.77;;;12.27;;
20896;SDS011;10608;42.600;23.398;2023-03-14T10:11:44;9.80;;;9.40;;
20896;SDS011;10608;42.600;23.398;2023-03-14T10:14:10;13.13;;;12.60;;
20896;SDS011;10608;42.600;23.398;2023-03-14T10:16:46;18.57;;;17.83;;
20896;SDS011;10608;42.600;23.398;2023-03-14T10:19:12;11.17;;;10.77;;
20896;SDS011;10608;42.600;23.398;2023-03-14T10:21:39;10.90;;;10.40;;
20896;SDS011;10608;42.600;23.398;2023-03-14T10:24:21;14.67;;;14.10;;
20896;SDS011;10608;42.600;23.398;2023-03-14T10:26:48;9.83;;;9.33;;
20896;SDS011;10608;42.600;23.398;2023-03-14T10:29:14;10.27;;;9.77;;
20896;SDS011;10608;42.600;23.398;2023-03-14T10:31:47;8.47;;;8.17;;
20896;SDS011;10608;42.600;23.398;2023-03-14T10:34:17;10.03;;;9.63;;
20896;SDS011;10608;42.600;23.398;2023-03-14T10:36:45;9.63;;;9.23;;
20896;SDS011;10608;42.600;23.398;2023-03-14T10:39:27;8.17;;;7.87;;
20896;SDS011;10608;42.600;23.398;2023-03-14T10:42:04;9.77;;;9.37;;
20896;SDS011;10608;42.600;23.398;2023-03-14T10:44:30;10.63;;;10.23;;
20896;SDS011;10608;42.600;23.398;2023-03-14T10:46:56;10.57;;;10.17;;
20896;SDS011;10608;42.600;23.398;2023-03-14T10:49:26;10.80;;;10.40;;
20896;SDS011;10608;42.600;23.398;2023-03-14T10:51:53;12.23;;;11.73;;
20896;SDS011;10608;42.600;23.398;2023-03-14T10:54:19;12.10;;;11.60;;
20896;SDS011;10608;42.600;23.398;2023-03-14T10:56:45;12.77;;;12.27;;
20896;SDS011;10608;42.600;23.398;2023-03-14T10:59:14;12.63;;;12.13;;
20896;SDS011;10608;42.600;23.398;2023-03-14T11:01:58;13.57;;;13.07;;
20896;SDS011;10608;42.600;23.398;2023-03-14T11:07:03;16.27;;;15.67;;
20896;SDS011;10608;42.600;23.398;2023-03-14T11:09:32;16.20;;;15.60;;
20896;SDS011;10608;42.600;23.398;2023-03-14T11:12:08;13.93;;;13.43;;
20896;SDS011;10608;42.600;23.398;2023-03-14T11:14:41;19.53;;;18.73;;
20896;SDS011;10608;42.600;23.398;2023-03-14T11:17:22;10.63;;;10.23;;
20896;SDS011;10608;42.600;23.398;2023-03-14T11:22:28;13.30;;;12.80;;
20896;SDS011;10608;42.600;23.398;2023-03-14T11:25:03;19.60;;;18.80;;
20896;SDS011;10608;42.600;23.398;2023-03-14T11:32:44;9.63;;;9.23;;
20896;SDS011;10608;42.600;23.398;2023-03-14T11:35:17;14.80;;;14.20;;
20896;SDS011;10608;42.600;23.398;2023-03-14T11:40:40;8.10;;;7.80;;
20896;SDS011;10608;42.600;23.398;2023-03-14T11:43:11;9.80;;;9.30;;
20896;SDS011;10608;42.600;23.398;2023-03-14T11:45:38;8.87;;;8.47;;
20896;SDS011;10608;42.600;23.398;2023-03-14T11:48:10;8.27;;;7.97;;
20896;SDS011;10608;42.600;23.398;2023-03-14T11:50:38;8.10;;;7.80;;
20896;SDS011;10608;42.600;23.398;2023-03-14T11:53:09;9.03;;;8.73;;
20896;SDS011;10608;42.600;23.398;2023-03-14T11:55:35;9.60;;;9.20;;
20896;SDS011;10608;42.600;23.398;2023-03-14T11:58:03;9.30;;;8.90;;
20896;SDS011;10608;42.600;23.398;2023-03-14T12:00:33;9.03;;;8.63;;
20896;SDS011;10608;42.600;23.398;2023-03-14T12:08:32;8.67;;;8.37;;
20896;SDS011;10608;42.600;23.398;2023-03-14T12:13:30;8.50;;;8.20;;
20896;SDS011;10608;42.600;23.398;2023-03-14T12:15:58;8.07;;;7.77;;
20896;SDS011;10608;42.600;23.398;2023-03-14T12:18:33;8.47;;;8.17;;
20896;SDS011;10608;42.600;23.398;2023-03-14T12:23:25;8.87;;;8.50;;
20896;SDS011;10608;42.600;23.398;2023-03-14T12:28:34;8.20;;;7.90;;
20896;SDS011;10608;42.600;23.398;2023-03-14T12:33:43;7.47;;;7.17;;
20896;SDS011;10608;42.600;23.398;2023-03-14T12:36:18;9.03;;;8.63;;
20896;SDS011;10608;42.600;23.398;2023-03-14T12:39:10;8.43;;;8.13;;
20896;SDS011;10608;42.600;23.398;2023-03-14T12:47:00;10.00;;;9.60;;
20896;SDS011;10608;42.600;23.398;2023-03-14T12:49:31;9.83;;;9.43;;
20896;SDS011;10608;42.600;23.398;2023-03-14T12:52:00;9.10;;;8.80;;
20896;SDS011;10608;42.600;23.398;2023-03-14T12:54:39;9.23;;;8.93;;
20896;SDS011;10608;42.600;23.398;2023-03-14T12:59:42;9.23;;;8.83;;
20896;SDS011;10608;42.600;23.398;2023-03-14T13:04:47;9.70;;;9.30;;
20896;SDS011;10608;42.600;23.398;2023-03-14T13:09:50;9.70;;;9.30;;
20896;SDS011;10608;42.600;23.398;2023-03-14T13:12:17;8.70;;;8.37;;
20896;SDS011;10608;42.600;23.398;2023-03-14T13:14:43;9.00;;;8.70;;
20896;SDS011;10608;42.600;23.398;2023-03-14T13:17:12;9.03;;;8.73;;
20896;SDS011;10608;42.600;23.398;2023-03-14T13:19:38;7.87;;;7.57;;
20896;SDS011;10608;42.600;23.398;2023-03-14T13:22:05;9.17;;;8.87;;
20896;SDS011;10608;42.600;23.398;2023-03-14T13:24:33;9.83;;;9.43;;
20896;SDS011;10608;42.600;23.398;2023-03-14T13:26:58;9.70;;;9.30;;
20896;SDS011;10608;42.600;23.398;2023-03-14T13:31:50;9.10;;;8.70;;
20896;SDS011;10608;42.600;23.398;2023-03-14T13:34:15;10.60;;;10.20;;
20896;SDS011;10608;42.600;23.398;2023-03-14T13:36:41;9.77;;;9.37;;
20896;SDS011;10608;42.600;23.398;2023-03-14T13:39:10;9.93;;;9.53;;
20896;SDS011;10608;42.600;23.398;2023-03-14T13:41:37;11.90;;;11.40;;
20896;SDS011;10608;42.600;23.398;2023-03-14T13:44:13;13.00;;;12.50;;
20896;SDS011;10608;42.600;23.398;2023-03-14T13:46:40;12.00;;;11.47;;
20896;SDS011;10608;42.600;23.398;2023-03-14T13:49:06;13.23;;;12.73;;
20896;SDS011;10608;42.600;23.398;2023-03-14T13:51:34;16.30;;;15.63;;
20896;SDS011;10608;42.600;23.398;2023-03-14T13:54:00;17.83;;;17.13;;
20896;SDS011;10608;42.600;23.398;2023-03-14T13:56:27;20.37;;;19.43;;
20896;SDS011;10608;42.600;23.398;2023-03-14T13:58:52;20.97;;;20.03;;
20896;SDS011;10608;42.600;23.398;2023-03-14T14:01:30;19.20;;;18.40;;
20896;SDS011;10608;42.600;23.398;2023-03-14T14:03:57;18.20;;;17.50;;
20896;SDS011;10608;42.600;23.398;2023-03-14T14:06:33;24.43;;;23.47;;
20896;SDS011;10608;42.600;23.398;2023-03-14T14:09:00;13.87;;;13.33;;
20896;SDS011;10608;42.600;23.398;2023-03-14T14:13:51;11.37;;;10.97;;
20896;SDS011;10608;42.600;23.398;2023-03-14T14:16:16;8.40;;;8.00;;
20896;SDS011;10608;42.600;23.398;2023-03-14T14:18:44;7.93;;;7.63;;
20896;SDS011;10608;42.600;23.398;2023-03-14T14:21:09;8.90;;;8.60;;
20896;SDS011;10608;42.600;23.398;2023-03-14T14:23:37;8.87;;;8.57;;
20896;SDS011;10608;42.600;23.398;2023-03-14T14:26:04;8.17;;;7.87;;
20896;SDS011;10608;42.600;23.398;2023-03-14T14:28:30;9.83;;;9.33;;
20896;SDS011;10608;42.600;23.398;2023-03-14T14:31:16;7.73;;;7.43;;
20896;SDS011;10608;42.600;23.398;2023-03-14T14:38:51;15.90;;;15.30;;
20896;SDS011;10608;42.600;23.398;2023-03-14T14:41:17;12.73;;;12.23;;
20896;SDS011;10608;42.600;23.398;2023-03-14T14:43:42;9.83;;;9.43;;
20896;SDS011;10608;42.600;23.398;2023-03-14T14:46:08;8.70;;;8.40;;
20896;SDS011;10608;42.600;23.398;2023-03-14T14:48:36;9.37;;;9.03;;
20896;SDS011;10608;42.600;23.398;2023-03-14T14:51:03;8.07;;;7.77;;
20896;SDS011;10608;42.600;23.398;2023-03-14T14:53:42;8.50;;;8.20;;
20896;SDS011;10608;42.600;23.398;2023-03-14T14:56:14;7.90;;;7.60;;
20896;SDS011;10608;42.600;23.398;2023-03-14T14:58:41;8.30;;;8.00;;
20896;SDS011;10608;42.600;23.398;2023-03-14T15:01:10;8.13;;;7.83;;
20896;SDS011;10608;42.600;23.398;2023-03-14T15:03:36;9.30;;;9.00;;
20896;SDS011;10608;42.600;23.398;2023-03-14T15:06:02;8.90;;;8.60;;
20896;SDS011;10608;42.600;23.398;2023-03-14T15:08:28;9.60;;;9.20;;
20896;SDS011;10608;42.600;23.398;2023-03-14T15:10:54;9.30;;;9.00;;